sensor_id;sensor_type;location;lat;lon;timestamp;temperature;humidity
66401;HTU21D;53211;45.040;38.788;2022-07-24T00:01:49;18.35;118.99
66401;HTU21D;53211;45.040;38.788;2022-07-24T00:04:14;18.37;118.99
66401;HTU21D;53211;45.040;38.788;2022-07-24T00:06:41;18.36;118.99
66401;HTU21D;53211;45.040;38.788;2022-07-24T00:09:06;18.36;118.99
66401;HTU21D;53211;45.040;38.788;2022-07-24T00:11:32;18.38;118.99
66401;HTU21D;53211;45.040;38.788;2022-07-24T00:13:58;18.36;118.99
66401;HTU21D;53211;45.040;38.788;2022-07-24T00:16:24;18.39;118.99
66401;HTU21D;53211;45.040;38.788;2022-07-24T00:18:50;18.39;118.99
66401;HTU21D;53211;45.040;38.788;2022-07-24T00:21:16;18.38;118.99
66401;HTU21D;53211;45.040;38.788;2022-07-24T00:23:42;18.37;118.99
66401;HTU21D;53211;45.040;38.788;2022-07-24T00:26:09;18.36;118.99
66401;HTU21D;53211;45.040;38.788;2022-07-24T00:28:35;18.33;118.99
66401;HTU21D;53211;45.040;38.788;2022-07-24T00:31:01;0.00;118.99
66401;HTU21D;53211;45.040;38.788;2022-07-24T00:33:27;18.40;118.99
66401;HTU21D;53211;45.040;38.788;2022-07-24T00:35:53;18.40;118.99
66401;HTU21D;53211;45.040;38.788;2022-07-24T00:38:19;18.41;118.99
66401;HTU21D;53211;45.040;38.788;2022-07-24T00:40:45;18.41;118.99
66401;HTU21D;53211;45.040;38.788;2022-07-24T00:43:11;18.44;118.99
66401;HTU21D;53211;45.040;38.788;2022-07-24T00:45:37;18.42;118.99
66401;HTU21D;53211;45.040;38.788;2022-07-24T00:48:03;18.43;118.99
66401;HTU21D;53211;45.040;38.788;2022-07-24T00:50:29;18.41;118.99
66401;HTU21D;53211;45.040;38.788;2022-07-24T00:52:55;18.42;118.99
66401;HTU21D;53211;45.040;38.788;2022-07-24T00:55:21;18.40;118.99
66401;HTU21D;53211;45.040;38.788;2022-07-24T00:57:47;18.41;118.99
66401;HTU21D;53211;45.040;38.788;2022-07-24T01:00:15;18.41;118.99
66401;HTU21D;53211;45.040;38.788;2022-07-24T01:02:41;18.39;118.99
66401;HTU21D;53211;45.040;38.788;2022-07-24T01:05:08;18.40;118.99
66401;HTU21D;53211;45.040;38.788;2022-07-24T01:07:34;18.38;118.99
66401;HTU21D;53211;45.040;38.788;2022-07-24T01:09:59;18.38;118.99
66401;HTU21D;53211;45.040;38.788;2022-07-24T01:12:26;18.36;118.99
66401;HTU21D;53211;45.040;38.788;2022-07-24T01:14:52;18.34;118.99
66401;HTU21D;53211;45.040;38.788;2022-07-24T01:17:18;18.30;118.99
66401;HTU21D;53211;45.040;38.788;2022-07-24T01:19:45;18.28;118.99
66401;HTU21D;53211;45.040;38.788;2022-07-24T01:22:11;18.25;118.99
66401;HTU21D;53211;45.040;38.788;2022-07-24T01:24:37;18.24;118.26
66401;HTU21D;53211;45.040;38.788;2022-07-24T01:27:02;18.20;118.99
66401;HTU21D;53211;45.040;38.788;2022-07-24T01:29:28;18.20;118.99
66401;HTU21D;53211;45.040;38.788;2022-07-24T01:31:54;18.20;118.99
66401;HTU21D;53211;45.040;38.788;2022-07-24T01:34:20;18.19;118.99
66401;HTU21D;53211;45.040;38.788;2022-07-24T01:36:45;18.18;118.99
66401;HTU21D;53211;45.040;38.788;2022-07-24T01:39:11;18.18;118.99
66401;HTU21D;53211;45.040;38.788;2022-07-24T01:41:37;18.17;118.99
66401;HTU21D;53211;45.040;38.788;2022-07-24T01:44:03;18.19;118.99
66401;HTU21D;53211;45.040;38.788;2022-07-24T01:46:29;18.15;118.99
66401;HTU21D;53211;45.040;38.788;2022-07-24T01:48:55;18.14;118.99
66401;HTU21D;53211;45.040;38.788;2022-07-24T01:51:21;18.14;118.99
66401;HTU21D;53211;45.040;38.788;2022-07-24T01:53:47;18.13;118.99
66401;HTU21D;53211;45.040;38.788;2022-07-24T01:56:12;18.11;118.99
66401;HTU21D;53211;45.040;38.788;2022-07-24T01:58:38;18.11;118.99
66401;HTU21D;53211;45.040;38.788;2022-07-24T02:01:05;18.11;118.99
66401;HTU21D;53211;45.040;38.788;2022-07-24T02:03:31;18.11;118.99
66401;HTU21D;53211;45.040;38.788;2022-07-24T02:05:57;18.11;118.99
66401;HTU21D;53211;45.040;38.788;2022-07-24T02:08:22;18.11;118.99
66401;HTU21D;53211;45.040;38.788;2022-07-24T02:10:48;18.08;118.24
66401;HTU21D;53211;45.040;38.788;2022-07-24T02:13:14;18.05;117.62
66401;HTU21D;53211;45.040;38.788;2022-07-24T02:15:40;18.03;117.53
66401;HTU21D;53211;45.040;38.788;2022-07-24T02:18:06;18.00;117.40
66401;HTU21D;53211;45.040;38.788;2022-07-24T02:20:31;17.97;117.57
66401;HTU21D;53211;45.040;38.788;2022-07-24T02:22:57;17.99;117.33
66401;HTU21D;53211;45.040;38.788;2022-07-24T02:25:23;18.02;117.11
66401;HTU21D;53211;45.040;38.788;2022-07-24T02:27:49;18.02;116.63
66401;HTU21D;53211;45.040;38.788;2022-07-24T02:30:16;18.03;116.78
66401;HTU21D;53211;45.040;38.788;2022-07-24T02:32:42;18.03;118.47
66401;HTU21D;53211;45.040;38.788;2022-07-24T02:35:08;18.05;118.99
66401;HTU21D;53211;45.040;38.788;2022-07-24T02:37:35;18.09;118.99
66401;HTU21D;53211;45.040;38.788;2022-07-24T02:40:01;18.17;118.99
66401;HTU21D;53211;45.040;38.788;2022-07-24T02:42:27;18.21;118.99
66401;HTU21D;53211;45.040;38.788;2022-07-24T02:44:53;18.28;118.99
66401;HTU21D;53211;45.040;38.788;2022-07-24T02:47:19;18.33;118.99
66401;HTU21D;53211;45.040;38.788;2022-07-24T02:49:44;18.36;118.99
66401;HTU21D;53211;45.040;38.788;2022-07-24T02:52:10;18.42;118.99
66401;HTU21D;53211;45.040;38.788;2022-07-24T02:54:36;18.46;118.99
66401;HTU21D;53211;45.040;38.788;2022-07-24T02:57:02;18.53;118.99
66401;HTU21D;53211;45.040;38.788;2022-07-24T02:59:28;18.58;118.99
66401;HTU21D;53211;45.040;38.788;2022-07-24T03:01:53;18.64;118.99
66401;HTU21D;53211;45.040;38.788;2022-07-24T03:04:19;18.69;118.99
66401;HTU21D;53211;45.040;38.788;2022-07-24T03:06:45;-2.93;118.99
66401;HTU21D;53211;45.040;38.788;2022-07-24T03:09:11;18.82;118.99
66401;HTU21D;53211;45.040;38.788;2022-07-24T03:11:37;18.88;118.99
66401;HTU21D;53211;45.040;38.788;2022-07-24T03:14:03;18.94;118.99
66401;HTU21D;53211;45.040;38.788;2022-07-24T03:16:28;19.03;118.99
66401;HTU21D;53211;45.040;38.788;2022-07-24T03:18:54;19.06;118.99
66401;HTU21D;53211;45.040;38.788;2022-07-24T03:21:20;19.12;118.99
66401;HTU21D;53211;45.040;38.788;2022-07-24T03:23:46;19.23;118.99
66401;HTU21D;53211;45.040;38.788;2022-07-24T03:26:11;19.29;118.99
66401;HTU21D;53211;45.040;38.788;2022-07-24T03:28:37;19.37;118.99
66401;HTU21D;53211;45.040;38.788;2022-07-24T03:31:03;19.43;118.99
66401;HTU21D;53211;45.040;38.788;2022-07-24T03:33:29;19.48;118.99
66401;HTU21D;53211;45.040;38.788;2022-07-24T03:35:55;19.57;118.99
66401;HTU21D;53211;45.040;38.788;2022-07-24T03:38:21;19.62;118.99
66401;HTU21D;53211;45.040;38.788;2022-07-24T03:40:47;19.72;118.99
66401;HTU21D;53211;45.040;38.788;2022-07-24T03:43:12;19.82;118.99
66401;HTU21D;53211;45.040;38.788;2022-07-24T03:45:38;19.94;118.99
66401;HTU21D;53211;45.040;38.788;2022-07-24T03:48:04;19.97;118.99
66401;HTU21D;53211;45.040;38.788;2022-07-24T03:50:42;20.07;118.99
66401;HTU21D;53211;45.040;38.788;2022-07-24T03:53:08;20.17;118.99
66401;HTU21D;53211;45.040;38.788;2022-07-24T03:55:34;20.25;118.99
66401;HTU21D;53211;45.040;38.788;2022-07-24T03:58:00;20.33;118.99
66401;HTU21D;53211;45.040;38.788;2022-07-24T04:00:26;20.44;118.99
66401;HTU21D;53211;45.040;38.788;2022-07-24T04:02:51;20.53;118.99
66401;HTU21D;53211;45.040;38.788;2022-07-24T04:05:17;20.61;118.99
66401;HTU21D;53211;45.040;38.788;2022-07-24T04:07:43;20.63;118.99
66401;HTU21D;53211;45.040;38.788;2022-07-24T04:10:09;20.79;118.99
66401;HTU21D;53211;45.040;38.788;2022-07-24T04:12:35;20.83;118.99
66401;HTU21D;53211;45.040;38.788;2022-07-24T04:15:01;20.95;118.99
66401;HTU21D;53211;45.040;38.788;2022-07-24T04:17:27;21.03;118.99
66401;HTU21D;53211;45.040;38.788;2022-07-24T04:19:53;21.13;118.99
66401;HTU21D;53211;45.040;38.788;2022-07-24T04:22:20;21.19;118.99
66401;HTU21D;53211;45.040;38.788;2022-07-24T04:24:46;21.23;118.99
66401;HTU21D;53211;45.040;38.788;2022-07-24T04:27:12;21.34;118.99
66401;HTU21D;53211;45.040;38.788;2022-07-24T04:29:38;21.40;118.99
66401;HTU21D;53211;45.040;38.788;2022-07-24T04:32:04;21.50;118.99
66401;HTU21D;53211;45.040;38.788;2022-07-24T04:34:30;21.60;118.99
66401;HTU21D;53211;45.040;38.788;2022-07-24T04:36:56;21.68;118.99
66401;HTU21D;53211;45.040;38.788;2022-07-24T04:39:22;21.72;118.99
66401;HTU21D;53211;45.040;38.788;2022-07-24T04:41:48;21.79;118.99
66401;HTU21D;53211;45.040;38.788;2022-07-24T04:44:14;21.90;118.99
66401;HTU21D;53211;45.040;38.788;2022-07-24T04:46:40;21.95;118.99
66401;HTU21D;53211;45.040;38.788;2022-07-24T04:49:06;22.06;118.99
66401;HTU21D;53211;45.040;38.788;2022-07-24T04:51:32;22.11;118.99
66401;HTU21D;53211;45.040;38.788;2022-07-24T04:53:58;22.19;118.99
66401;HTU21D;53211;45.040;38.788;2022-07-24T04:56:24;22.32;118.99
66401;HTU21D;53211;45.040;38.788;2022-07-24T04:58:49;22.38;118.99
66401;HTU21D;53211;45.040;38.788;2022-07-24T05:01:15;22.46;118.99
66401;HTU21D;53211;45.040;38.788;2022-07-24T05:03:41;22.52;118.99
66401;HTU21D;53211;45.040;38.788;2022-07-24T05:06:07;22.60;118.99
66401;HTU21D;53211;45.040;38.788;2022-07-24T05:08:33;22.66;118.99
66401;HTU21D;53211;45.040;38.788;2022-07-24T05:10:59;22.72;118.99
66401;HTU21D;53211;45.040;38.788;2022-07-24T05:13:24;22.81;118.99
66401;HTU21D;53211;45.040;38.788;2022-07-24T05:15:50;22.84;118.99
66401;HTU21D;53211;45.040;38.788;2022-07-24T05:18:16;22.91;118.99
66401;HTU21D;53211;45.040;38.788;2022-07-24T05:20:42;23.00;118.99
66401;HTU21D;53211;45.040;38.788;2022-07-24T05:23:08;23.15;118.99
66401;HTU21D;53211;45.040;38.788;2022-07-24T05:25:34;23.18;118.99
66401;HTU21D;53211;45.040;38.788;2022-07-24T05:28:00;23.27;118.99
66401;HTU21D;53211;45.040;38.788;2022-07-24T05:30:26;23.32;118.99
66401;HTU21D;53211;45.040;38.788;2022-07-24T05:32:52;23.49;118.99
66401;HTU21D;53211;45.040;38.788;2022-07-24T05:35:18;23.50;118.99
66401;HTU21D;53211;45.040;38.788;2022-07-24T05:37:44;23.54;118.99
66401;HTU21D;53211;45.040;38.788;2022-07-24T05:40:09;23.66;118.99
66401;HTU21D;53211;45.040;38.788;2022-07-24T05:42:35;23.69;118.99
66401;HTU21D;53211;45.040;38.788;2022-07-24T05:45:02;23.70;118.92
66401;HTU21D;53211;45.040;38.788;2022-07-24T05:47:28;23.83;116.95
66401;HTU21D;53211;45.040;38.788;2022-07-24T05:49:54;23.90;112.87
66401;HTU21D;53211;45.040;38.788;2022-07-24T05:52:20;24.02;113.74
66401;HTU21D;53211;45.040;38.788;2022-07-24T05:54:46;24.03;113.61
66401;HTU21D;53211;45.040;38.788;2022-07-24T05:57:11;24.10;111.39
66401;HTU21D;53211;45.040;38.788;2022-07-24T05:59:37;24.23;111.94
66401;HTU21D;53211;45.040;38.788;2022-07-24T06:02:03;24.39;112.80
66401;HTU21D;53211;45.040;38.788;2022-07-24T06:04:30;24.35;110.69
66401;HTU21D;53211;45.040;38.788;2022-07-24T06:06:55;24.41;108.43
66401;HTU21D;53211;45.040;38.788;2022-07-24T06:09:21;24.54;110.66
66401;HTU21D;53211;45.040;38.788;2022-07-24T06:11:47;24.54;108.11
66401;HTU21D;53211;45.040;38.788;2022-07-24T06:14:13;24.65;108.30
66401;HTU21D;53211;45.040;38.788;2022-07-24T06:16:38;24.68;109.83
66401;HTU21D;53211;45.040;38.788;2022-07-24T06:19:04;24.62;105.51
66401;HTU21D;53211;45.040;38.788;2022-07-24T06:21:30;24.70;104.35
66401;HTU21D;53211;45.040;38.788;2022-07-24T06:23:56;24.79;106.21
66401;HTU21D;53211;45.040;38.788;2022-07-24T06:26:22;24.80;108.30
66401;HTU21D;53211;45.040;38.788;2022-07-24T06:28:48;24.90;107.41
66401;HTU21D;53211;45.040;38.788;2022-07-24T06:31:13;24.95;107.94
66401;HTU21D;53211;45.040;38.788;2022-07-24T06:33:39;25.02;107.43
66401;HTU21D;53211;45.040;38.788;2022-07-24T06:36:05;25.12;108.43
66401;HTU21D;53211;45.040;38.788;2022-07-24T06:38:31;25.21;106.25
66401;HTU21D;53211;45.040;38.788;2022-07-24T06:40:57;25.32;106.14
66401;HTU21D;53211;45.040;38.788;2022-07-24T06:43:22;25.46;103.67
66401;HTU21D;53211;45.040;38.788;2022-07-24T06:45:48;25.63;101.54
66401;HTU21D;53211;45.040;38.788;2022-07-24T06:48:14;25.75;102.42
66401;HTU21D;53211;45.040;38.788;2022-07-24T06:50:40;25.79;102.58
66401;HTU21D;53211;45.040;38.788;2022-07-24T06:53:06;25.79;99.92
66401;HTU21D;53211;45.040;38.788;2022-07-24T06:55:31;25.80;100.51
66401;HTU21D;53211;45.040;38.788;2022-07-24T06:57:57;25.84;102.01
66401;HTU21D;53211;45.040;38.788;2022-07-24T07:00:23;25.78;100.58
66401;HTU21D;53211;45.040;38.788;2022-07-24T07:02:49;25.88;101.15
66401;HTU21D;53211;45.040;38.788;2022-07-24T07:05:15;26.02;100.02
66401;HTU21D;53211;45.040;38.788;2022-07-24T07:07:41;26.21;100.95
66401;HTU21D;53211;45.040;38.788;2022-07-24T07:10:09;26.35;101.35
66401;HTU21D;53211;45.040;38.788;2022-07-24T07:12:35;26.41;97.23
66401;HTU21D;53211;45.040;38.788;2022-07-24T07:15:01;26.48;97.48
66401;HTU21D;53211;45.040;38.788;2022-07-24T07:17:27;26.49;95.73
66401;HTU21D;53211;45.040;38.788;2022-07-24T07:19:53;26.37;95.55
66401;HTU21D;53211;45.040;38.788;2022-07-24T07:22:19;26.50;96.39
66401;HTU21D;53211;45.040;38.788;2022-07-24T07:24:45;26.60;96.84
66401;HTU21D;53211;45.040;38.788;2022-07-24T07:27:10;26.70;95.67
66401;HTU21D;53211;45.040;38.788;2022-07-24T07:29:39;26.75;92.44
66401;HTU21D;53211;45.040;38.788;2022-07-24T07:32:05;26.87;94.83
66401;HTU21D;53211;45.040;38.788;2022-07-24T07:34:31;26.93;92.72
66401;HTU21D;53211;45.040;38.788;2022-07-24T07:36:56;26.81;91.08
66401;HTU21D;53211;45.040;38.788;2022-07-24T07:39:22;26.78;93.34
66401;HTU21D;53211;45.040;38.788;2022-07-24T07:41:48;26.64;93.14
66401;HTU21D;53211;45.040;38.788;2022-07-24T07:44:14;26.60;94.50
66401;HTU21D;53211;45.040;38.788;2022-07-24T07:46:40;26.56;94.42
66401;HTU21D;53211;45.040;38.788;2022-07-24T07:49:05;26.57;95.01
66401;HTU21D;53211;45.040;38.788;2022-07-24T07:51:31;26.53;93.58
66401;HTU21D;53211;45.040;38.788;2022-07-24T07:53:57;26.53;94.62
66401;HTU21D;53211;45.040;38.788;2022-07-24T07:56:23;26.41;93.52
66401;HTU21D;53211;45.040;38.788;2022-07-24T07:58:49;26.53;92.27
66401;HTU21D;53211;45.040;38.788;2022-07-24T08:01:15;26.57;93.49
66401;HTU21D;53211;45.040;38.788;2022-07-24T08:03:40;26.56;94.80
66401;HTU21D;53211;45.040;38.788;2022-07-24T08:06:06;26.49;92.40
66401;HTU21D;53211;45.040;38.788;2022-07-24T08:08:32;26.49;92.24
66401;HTU21D;53211;45.040;38.788;2022-07-24T08:10:58;26.51;93.32
66401;HTU21D;53211;45.040;38.788;2022-07-24T08:13:24;26.55;95.14
66401;HTU21D;53211;45.040;38.788;2022-07-24T08:15:49;26.57;94.15
66401;HTU21D;53211;45.040;38.788;2022-07-24T08:18:15;26.61;94.36
66401;HTU21D;53211;45.040;38.788;2022-07-24T08:20:41;26.62;92.98
66401;HTU21D;53211;45.040;38.788;2022-07-24T08:23:09;26.52;97.36
66401;HTU21D;53211;45.040;38.788;2022-07-24T08:25:35;26.65;96.47
66401;HTU21D;53211;45.040;38.788;2022-07-24T08:28:01;26.66;96.64
66401;HTU21D;53211;45.040;38.788;2022-07-24T08:30:27;26.70;96.78
66401;HTU21D;53211;45.040;38.788;2022-07-24T08:32:53;26.77;96.82
66401;HTU21D;53211;45.040;38.788;2022-07-24T08:35:18;26.80;97.37
66401;HTU21D;53211;45.040;38.788;2022-07-24T08:37:45;26.80;96.97
66401;HTU21D;53211;45.040;38.788;2022-07-24T08:40:12;26.79;97.07
66401;HTU21D;53211;45.040;38.788;2022-07-24T08:42:38;26.78;97.18
66401;HTU21D;53211;45.040;38.788;2022-07-24T08:45:05;26.70;97.34
66401;HTU21D;53211;45.040;38.788;2022-07-24T08:47:31;26.58;98.51
66401;HTU21D;53211;45.040;38.788;2022-07-24T08:50:00;26.39;101.13
66401;HTU21D;53211;45.040;38.788;2022-07-24T08:52:29;26.07;99.81
66401;HTU21D;53211;45.040;38.788;2022-07-24T08:54:55;25.73;100.04
66401;HTU21D;53211;45.040;38.788;2022-07-24T08:57:21;25.49;100.34
66401;HTU21D;53211;45.040;38.788;2022-07-24T08:59:47;25.37;100.77
66401;HTU21D;53211;45.040;38.788;2022-07-24T09:02:13;25.30;101.69
66401;HTU21D;53211;45.040;38.788;2022-07-24T09:07:06;25.35;105.49
66401;HTU21D;53211;45.040;38.788;2022-07-24T09:09:32;25.32;109.97
66401;HTU21D;53211;45.040;38.788;2022-07-24T09:14:31;25.35;107.57
66401;HTU21D;53211;45.040;38.788;2022-07-24T09:17:04;25.34;107.68
66401;HTU21D;53211;45.040;38.788;2022-07-24T09:19:30;25.31;106.28
66401;HTU21D;53211;45.040;38.788;2022-07-24T09:21:56;25.24;105.99
66401;HTU21D;53211;45.040;38.788;2022-07-24T09:24:22;25.18;109.53
66401;HTU21D;53211;45.040;38.788;2022-07-24T09:26:49;25.15;105.33
66401;HTU21D;53211;45.040;38.788;2022-07-24T09:29:16;25.10;105.02
66401;HTU21D;53211;45.040;38.788;2022-07-24T09:31:52;25.16;107.72
66401;HTU21D;53211;45.040;38.788;2022-07-24T09:34:18;25.20;111.24
66401;HTU21D;53211;45.040;38.788;2022-07-24T09:37:02;25.33;108.57
66401;HTU21D;53211;45.040;38.788;2022-07-24T09:39:28;25.54;107.76
66401;HTU21D;53211;45.040;38.788;2022-07-24T09:41:55;25.75;104.44
66401;HTU21D;53211;45.040;38.788;2022-07-24T09:44:21;25.96;103.63
66401;HTU21D;53211;45.040;38.788;2022-07-24T09:47:01;26.11;103.39
66401;HTU21D;53211;45.040;38.788;2022-07-24T09:49:28;26.27;103.32
66401;HTU21D;53211;45.040;38.788;2022-07-24T09:54:36;26.63;101.25
66401;HTU21D;53211;45.040;38.788;2022-07-24T09:59:57;26.83;96.04
66401;HTU21D;53211;45.040;38.788;2022-07-24T10:02:25;26.77;97.97
66401;HTU21D;53211;45.040;38.788;2022-07-24T10:04:51;26.81;98.39
66401;HTU21D;53211;45.040;38.788;2022-07-24T10:07:18;26.80;97.48
66401;HTU21D;53211;45.040;38.788;2022-07-24T10:09:45;26.82;99.07
66401;HTU21D;53211;45.040;38.788;2022-07-24T10:12:15;27.01;95.63
66401;HTU21D;53211;45.040;38.788;2022-07-24T10:14:42;27.21;95.55
66401;HTU21D;53211;45.040;38.788;2022-07-24T10:17:10;27.44;98.38
66401;HTU21D;53211;45.040;38.788;2022-07-24T10:19:41;27.59;96.09
66401;HTU21D;53211;45.040;38.788;2022-07-24T10:22:12;27.52;92.61
66401;HTU21D;53211;45.040;38.788;2022-07-24T10:27:04;27.59;93.21
66401;HTU21D;53211;45.040;38.788;2022-07-24T10:29:32;27.73;88.70
66401;HTU21D;53211;45.040;38.788;2022-07-24T10:31:58;27.95;86.02
66401;HTU21D;53211;45.040;38.788;2022-07-24T10:37:31;29.07;89.78
66401;HTU21D;53211;45.040;38.788;2022-07-24T10:45:27;30.81;79.04
66401;HTU21D;53211;45.040;38.788;2022-07-24T10:47:56;30.50;77.27
66401;HTU21D;53211;45.040;38.788;2022-07-24T10:50:22;30.20;82.95
66401;HTU21D;53211;45.040;38.788;2022-07-24T10:52:48;30.11;81.52
66401;HTU21D;53211;45.040;38.788;2022-07-24T10:55:33;30.21;77.82
66401;HTU21D;53211;45.040;38.788;2022-07-24T11:02:58;29.62;79.87
66401;HTU21D;53211;45.040;38.788;2022-07-24T11:05:25;29.47;81.63
66401;HTU21D;53211;45.040;38.788;2022-07-24T11:10:52;28.72;85.88
66401;HTU21D;53211;45.040;38.788;2022-07-24T11:21:03;27.20;91.58
66401;HTU21D;53211;45.040;38.788;2022-07-24T11:23:29;26.92;91.84
66401;HTU21D;53211;45.040;38.788;2022-07-24T11:28:40;26.56;92.29
66401;HTU21D;53211;45.040;38.788;2022-07-24T11:31:06;26.66;92.95
66401;HTU21D;53211;45.040;38.788;2022-07-24T11:33:35;26.92;92.29
66401;HTU21D;53211;45.040;38.788;2022-07-24T11:36:06;26.92;91.89
66401;HTU21D;53211;45.040;38.788;2022-07-24T11:38:32;26.71;97.34
66401;HTU21D;53211;45.040;38.788;2022-07-24T11:41:05;26.37;104.15
66401;HTU21D;53211;45.040;38.788;2022-07-24T11:43:33;25.72;99.58
66401;HTU21D;53211;45.040;38.788;2022-07-24T11:45:59;25.01;99.55
66401;HTU21D;53211;45.040;38.788;2022-07-24T11:48:24;24.50;99.71
66401;HTU21D;53211;45.040;38.788;2022-07-24T11:51:02;24.19;100.10
66401;HTU21D;53211;45.040;38.788;2022-07-24T11:53:28;24.10;100.53
66401;HTU21D;53211;45.040;38.788;2022-07-24T11:56:02;24.08;101.28
66401;HTU21D;53211;45.040;38.788;2022-07-24T11:58:28;24.28;105.68
66401;HTU21D;53211;45.040;38.788;2022-07-24T12:00:54;24.70;101.56
66401;HTU21D;53211;45.040;38.788;2022-07-24T12:03:20;25.32;103.29
66401;HTU21D;53211;45.040;38.788;2022-07-24T12:05:45;26.97;102.50
66401;HTU21D;53211;45.040;38.788;2022-07-24T12:08:15;28.98;97.97
66401;HTU21D;53211;45.040;38.788;2022-07-24T12:10:41;30.71;93.76
66401;HTU21D;53211;45.040;38.788;2022-07-24T12:13:13;31.67;90.25
66401;HTU21D;53211;45.040;38.788;2022-07-24T12:15:51;31.59;88.92
66401;HTU21D;53211;45.040;38.788;2022-07-24T12:18:17;30.95;89.73
66401;HTU21D;53211;45.040;38.788;2022-07-24T12:20:43;30.27;90.89
66401;HTU21D;53211;45.040;38.788;2022-07-24T12:23:14;29.61;91.82
66401;HTU21D;53211;45.040;38.788;2022-07-24T12:25:40;28.98;92.94
66401;HTU21D;53211;45.040;38.788;2022-07-24T12:30:36;27.94;95.04
66401;HTU21D;53211;45.040;38.788;2022-07-24T12:35:29;27.22;96.65
66401;HTU21D;53211;45.040;38.788;2022-07-24T12:37:56;26.95;97.32
66401;HTU21D;53211;45.040;38.788;2022-07-24T12:40:43;26.84;98.20
66401;HTU21D;53211;45.040;38.788;2022-07-24T12:43:10;27.16;99.99
66401;HTU21D;53211;45.040;38.788;2022-07-24T12:45:36;28.13;98.80
66401;HTU21D;53211;45.040;38.788;2022-07-24T12:48:09;28.46;96.68
66401;HTU21D;53211;45.040;38.788;2022-07-24T12:50:37;28.31;96.53
66401;HTU21D;53211;45.040;38.788;2022-07-24T12:53:04;28.27;97.32
66401;HTU21D;53211;45.040;38.788;2022-07-24T12:55:30;28.65;97.53
66401;HTU21D;53211;45.040;38.788;2022-07-24T12:57:59;28.95;96.10
66401;HTU21D;53211;45.040;38.788;2022-07-24T13:00:25;28.78;95.57
66401;HTU21D;53211;45.040;38.788;2022-07-24T13:02:51;28.39;95.84
66401;HTU21D;53211;45.040;38.788;2022-07-24T13:05:35;27.93;96.64
66401;HTU21D;53211;45.040;38.788;2022-07-24T13:08:01;27.49;97.40
66401;HTU21D;53211;45.040;38.788;2022-07-24T13:10:27;27.14;98.08
66401;HTU21D;53211;45.040;38.788;2022-07-24T13:12:53;26.91;99.02
66401;HTU21D;53211;45.040;38.788;2022-07-24T13:15:18;26.92;100.06
66401;HTU21D;53211;45.040;38.788;2022-07-24T13:17:44;27.22;99.84
66401;HTU21D;53211;45.040;38.788;2022-07-24T13:20:10;27.93;101.00
66401;HTU21D;53211;45.040;38.788;2022-07-24T13:22:36;28.77;98.46
66401;HTU21D;53211;45.040;38.788;2022-07-24T13:25:02;29.05;97.07
66401;HTU21D;53211;45.040;38.788;2022-07-24T13:27:27;28.99;96.51
66401;HTU21D;53211;45.040;38.788;2022-07-24T13:29:54;28.75;96.60
66401;HTU21D;53211;45.040;38.788;2022-07-24T13:32:20;28.56;97.12
66401;HTU21D;53211;45.040;38.788;2022-07-24T13:34:46;28.94;99.08
66401;HTU21D;53211;45.040;38.788;2022-07-24T13:37:12;30.21;98.33
66401;HTU21D;53211;45.040;38.788;2022-07-24T13:39:38;31.76;95.52
66401;HTU21D;53211;45.040;38.788;2022-07-24T13:42:05;33.42;92.43
66401;HTU21D;53211;45.040;38.788;2022-07-24T13:44:31;34.92;89.61
66401;HTU21D;53211;45.040;38.788;2022-07-24T13:46:57;36.17;86.25
66401;HTU21D;53211;45.040;38.788;2022-07-24T13:49:23;37.00;84.80
66401;HTU21D;53211;45.040;38.788;2022-07-24T13:51:49;37.85;83.20
66401;HTU21D;53211;45.040;38.788;2022-07-24T13:54:15;38.45;81.64
66401;HTU21D;53211;45.040;38.788;2022-07-24T13:56:41;38.92;80.15
66401;HTU21D;53211;45.040;38.788;2022-07-24T13:59:07;39.29;77.31
66401;HTU21D;53211;45.040;38.788;2022-07-24T14:01:33;39.56;77.63
66401;HTU21D;53211;45.040;38.788;2022-07-24T14:03:59;39.71;77.68
66401;HTU21D;53211;45.040;38.788;2022-07-24T14:06:26;40.02;76.38
66401;HTU21D;53211;45.040;38.788;2022-07-24T14:08:51;40.29;74.64
66401;HTU21D;53211;45.040;38.788;2022-07-24T14:11:17;40.60;74.66
66401;HTU21D;53211;45.040;38.788;2022-07-24T14:13:43;40.97;73.74
66401;HTU21D;53211;45.040;38.788;2022-07-24T14:16:13;41.24;72.47
66401;HTU21D;53211;45.040;38.788;2022-07-24T14:18:38;41.40;72.15
66401;HTU21D;53211;45.040;38.788;2022-07-24T14:21:04;41.58;68.97
66401;HTU21D;53211;45.040;38.788;2022-07-24T14:23:30;41.59;71.06
66401;HTU21D;53211;45.040;38.788;2022-07-24T14:25:56;41.57;67.55
66401;HTU21D;53211;45.040;38.788;2022-07-24T14:28:22;41.31;68.82
66401;HTU21D;53211;45.040;38.788;2022-07-24T14:30:47;40.91;68.68
66401;HTU21D;53211;45.040;38.788;2022-07-24T14:33:13;40.35;69.00
66401;HTU21D;53211;45.040;38.788;2022-07-24T14:35:39;39.55;68.30
66401;HTU21D;53211;45.040;38.788;2022-07-24T14:38:05;38.65;68.93
66401;HTU21D;53211;45.040;38.788;2022-07-24T14:40:32;37.54;69.93
66401;HTU21D;53211;45.040;38.788;2022-07-24T14:42:58;36.28;72.32
66401;HTU21D;53211;45.040;38.788;2022-07-24T14:45:24;35.04;74.19
66401;HTU21D;53211;45.040;38.788;2022-07-24T14:47:49;33.94;76.53
66401;HTU21D;53211;45.040;38.788;2022-07-24T14:50:15;32.98;76.86
66401;HTU21D;53211;45.040;38.788;2022-07-24T14:52:41;32.07;80.07
66401;HTU21D;53211;45.040;38.788;2022-07-24T14:55:07;31.35;81.77
66401;HTU21D;53211;45.040;38.788;2022-07-24T14:57:33;30.66;83.19
66401;HTU21D;53211;45.040;38.788;2022-07-24T14:59:59;30.07;84.48
66401;HTU21D;53211;45.040;38.788;2022-07-24T15:02:25;29.54;85.47
66401;HTU21D;53211;45.040;38.788;2022-07-24T15:04:51;29.08;86.61
66401;HTU21D;53211;45.040;38.788;2022-07-24T15:07:17;28.68;87.64
66401;HTU21D;53211;45.040;38.788;2022-07-24T15:09:43;28.31;88.92
66401;HTU21D;53211;45.040;38.788;2022-07-24T15:12:09;28.00;89.55
66401;HTU21D;53211;45.040;38.788;2022-07-24T15:14:35;27.74;90.34
66401;HTU21D;53211;45.040;38.788;2022-07-24T15:17:01;27.45;90.96
66401;HTU21D;53211;45.040;38.788;2022-07-24T15:19:27;27.22;91.73
66401;HTU21D;53211;45.040;38.788;2022-07-24T15:21:52;26.98;92.24
66401;HTU21D;53211;45.040;38.788;2022-07-24T15:24:18;26.78;92.72
66401;HTU21D;53211;45.040;38.788;2022-07-24T15:26:44;26.58;93.12
66401;HTU21D;53211;45.040;38.788;2022-07-24T15:29:11;26.42;94.32
66401;HTU21D;53211;45.040;38.788;2022-07-24T15:31:36;26.28;94.09
66401;HTU21D;53211;45.040;38.788;2022-07-24T15:34:02;26.12;94.36